This is the latest recevied weather packets stored in our database for station/object AB4CZ-1. If no packets are shown the sender has not sent any weather packets the latest 10 day(s).
| Time | Temp. | Humidity | Pressure | Rain* | Wind** | Luminosity | Snow |
|---|---|---|---|---|---|---|---|
| 1778249194 | 16.67° C | 80% | 1018.7 hPa | 0 mm | - | - | - |
| 1778248594 | 16.11° C | 83% | 1018.8 hPa | 0 mm | - | - | - |
| 1778248504 | 16.11° C | 87% | 1018.9 hPa | 0 mm | - | - | - |
| 1778248297 | 16.11° C | 87% | 1018.9 hPa | 0 mm | - | - | - |
| 1778247694 | 15.56° C | 89% | 1019.1 hPa | 0 mm | - | - | - |
| 1778246236 | 13.89° C | 98% | 1019 hPa | 0 mm | - | - | - |
| 1778246197 | 13.89° C | 98% | 1019 hPa | 0 mm | - | - | - |
| 1778244994 | 13.33° C | 98% | 1018.9 hPa | 0 mm | - | - | - |
| 1778244694 | 12.78° C | 99% | 1018.8 hPa | 0 mm | - | - | - |
| 1778244520 | 12.78° C | 99% | 1018.7 hPa | 0 mm | - | - | - |
| 1778244394 | 12.78° C | 99% | 1018.7 hPa | 0 mm | - | - | - |
| 1778244094 | 12.78° C | 99% | 1018.7 hPa | 0 mm | - | - | - |
| 1778243794 | 12.78° C | 99% | 1018.7 hPa | 0 mm | - | - | - |
| 1778243194 | 12.22° C | 99% | 1018.9 hPa | 0 mm | - | - | - |
| 1778242895 | 12.22° C | 99% | 1018.8 hPa | 0 mm | - | - | - |
| 1778242690 | 12.22° C | 99% | 1018.6 hPa | 0 mm | - | - | - |
| 1778242594 | 12.22° C | 99% | 1018.6 hPa | 0 mm | - | - | - |
| 1778242294 | 11.67° C | 99% | 1018.6 hPa | 0 mm | - | - | - |
| 1778241994 | 11.11° C | 99% | 1018.5 hPa | 0.25 mm | - | - | - |
| 1778241694 | 11.11° C | 99% | 1018.4 hPa | 0.25 mm | - | - | - |
| 1778241394 | 11.11° C | 99% | 1018.3 hPa | 0.25 mm | - | - | - |
| 1778241094 | 10.56° C | 99% | 1018 hPa | 0.25 mm | - | - | - |
| 1778240496 | 10.56° C | 98% | 1017.8 hPa | 0.25 mm | - | - | - |
| 1778240194 | 10° C | 98% | 1017.7 hPa | 0.25 mm | - | - | - |
| 1778239756 | 10° C | 98% | 1017.2 hPa | 0.25 mm | - | - | - |
* Rain latest hour (hover to see other rain measurements)
** Current wind speed in m/s (hover to see current wind gust speed)